Time;durP1;ratioP1;P1;durP2;ratioP2;P2;SDS_P1;SDS_P2;PMS_P1;PMS_P2;Temp;Humidity;BMP_temperature;BMP_pressure;BME280_temperature;BME280_humidity;BME280_pressure;Samples;Min_cycle;Max_cycle;Signal;HPM_P1;HPM_P2
2021/01/22 00:01:17;;;;;;;;;;;;;;;6.78;71.83;100075.06;4979729;28;19918;-84
2021/01/22 00:04:02;;;;;;;;;;;;;;;6.81;71.26;100074.47;4981783;28;19914;-84
2021/01/22 00:06:47;;;;;;;;;;;;;;;6.79;71.76;100071.28;4987793;28;19914;-84
2021/01/22 00:09:32;;;;;;;;;;;;;;;6.73;71.93;100067.91;4990248;28;19914;-87
2021/01/22 00:12:18;;;;;;;;;;;;;;;6.78;71.05;100065.06;4987892;28;19914;-84
2021/01/22 00:15:02;;;;;;;;;;;;;;;6.60;72.41;100068.75;4972474;28;19914;-82
2021/01/22 00:17:47;;;;;;;;;;;;;;;6.47;73.24;100056.06;4969655;28;19914;-82
2021/01/22 00:20:32;;;;;;;;;;;;;;;6.63;72.88;100051.91;4969386;28;20312;-81
2021/01/22 00:23:18;;;;;;;;;;;;;;;6.52;72.58;100049.75;4978056;28;19914;-83
2021/01/22 00:26:03;;;;;;;;;;;;;;;6.74;71.96;100030.88;4988273;28;20288;-82
2021/01/22 00:28:47;;;;;;;;;;;;;;;6.73;71.45;100032.78;4993022;28;19914;-82
2021/01/22 00:31:32;;;;;;;;;;;;;;;6.76;71.74;100034.84;4973732;28;19914;-83
2021/01/22 00:34:16;;;;;;;;;;;;;;;6.78;71.41;100038.06;4984982;28;19914;-83
2021/01/22 00:37:01;;;;;;;;;;;;;;;6.77;70.59;100033.75;4980043;28;19914;-82
2021/01/22 00:39:46;;;;;;;;;;;;;;;6.74;71.62;100034.38;4980747;28;19914;-83
2021/01/22 00:42:30;;;;;;;;;;;;;;;6.54;72.81;100042.94;4978312;28;19917;-81
2021/01/22 00:45:15;;;;;;;;;;;;;;;6.54;73.47;100024.03;4967172;28;19914;-82
2021/01/22 00:47:59;;;;;;;;;;;;;;;6.74;73.03;100026.28;4970536;28;19914;-81
2021/01/22 00:50:43;;;;;;;;;;;;;;;6.70;72.26;100009.06;4985306;28;19914;-81
2021/01/22 00:53:29;;;;;;;;;;;;;;;6.54;73.38;100009.72;4977998;28;19914;-85
2021/01/22 00:56:13;;;;;;;;;;;;;;;6.53;73.52;100002.72;4963303;28;19914;-83
2021/01/22 00:59:03;;;;;;;;;;;;;;;6.36;73.67;100000.66;4967662;28;19914;-81
2021/01/22 01:01:52;;;;;;;;;;;;;;;6.65;72.74;99993.00;4980088;28;19918;-86
2021/01/22 01:04:36;;;;;;;;;;;;;;;6.65;72.31;99984.09;4970210;28;20292;-85
2021/01/22 01:07:29;;;;;;;;;;;;;;;6.66;72.50;99964.84;4967837;28;19917;-83
2021/01/22 01:10:14;;;;;;;;;;;;;;;6.66;72.42;99954.03;4966394;28;19914;-83
2021/01/22 01:13:17;;;;;;;;;;;;;;;6.61;72.59;99964.97;4978888;28;19914;-84
2021/01/22 01:16:25;;;;;;;;;;;;;;;6.34;72.85;99960.50;4976220;28;19914;-83
2021/01/22 01:19:10;;;;;;;;;;;;;;;6.91;70.72;99954.53;4963929;28;20490;-83
2021/01/22 01:21:55;;;;;;;;;;;;;;;6.79;71.55;99941.59;4978828;28;19918;-83
2021/01/22 01:24:39;;;;;;;;;;;;;;;6.69;71.82;99939.94;4965909;28;19918;-81
2021/01/22 01:27:24;;;;;;;;;;;;;;;6.62;72.41;99944.16;4967844;28;19918;-84
2021/01/22 01:30:08;;;;;;;;;;;;;;;6.66;72.41;99945.94;4967863;28;19914;-82
2021/01/22 01:32:53;;;;;;;;;;;;;;;6.60;72.47;99932.88;4973313;28;19914;-81
2021/01/22 01:35:37;;;;;;;;;;;;;;;6.66;72.96;99947.84;4963797;28;19922;-82
2021/01/22 01:38:22;;;;;;;;;;;;;;;6.48;73.66;99960.44;4976801;28;20304;-81
2021/01/22 01:41:06;;;;;;;;;;;;;;;6.53;73.77;99965.72;4975415;28;19918;-82
2021/01/22 01:43:51;;;;;;;;;;;;;;;6.48;74.36;99978.53;4963137;28;19925;-83
2021/01/22 01:46:36;;;;;;;;;;;;;;;6.43;74.80;99992.97;4976003;28;19914;-82
2021/01/22 01:49:21;;;;;;;;;;;;;;;6.52;75.15;99999.22;4962724;28;19918;-83
2021/01/22 01:52:06;;;;;;;;;;;;;;;6.73;72.55;99964.44;4954405;28;19914;-81
2021/01/22 01:54:51;;;;;;;;;;;;;;;6.65;73.80;99952.47;4979430;28;19917;-84
2021/01/22 01:57:36;;;;;;;;;;;;;;;6.65;74.66;99959.78;4977640;28;19914;-81
2021/01/22 02:00:21;;;;;;;;;;;;;;;6.53;75.14;99968.41;4983525;28;19917;-83
2021/01/22 02:03:05;;;;;;;;;;;;;;;6.44;75.29;99957.56;4976634;28;19914;-83
2021/01/22 02:05:51;;;;;;;;;;;;;;;6.42;75.36;99959.75;4978105;28;20399;-82
2021/01/22 02:08:35;;;;;;;;;;;;;;;6.58;74.89;99941.28;5003261;23;20254;-88
2021/01/22 02:11:21;;;;;;;;;;;;;;;6.50;75.36;99952.84;4983244;28;19918;-87
2021/01/22 02:14:06;;;;;;;;;;;;;;;6.43;75.26;99949.75;4967726;28;19914;-87
2021/01/22 02:16:51;;;;;;;;;;;;;;;6.61;74.87;99950.66;4976072;28;20384;-87
2021/01/22 02:19:42;;;;;;;;;;;;;;;6.62;74.13;99936.88;4984336;28;19918;-87
2021/01/22 02:22:27;;;;;;;;;;;;;;;6.40;74.49;99947.66;4971412;28;19918;-87
2021/01/22 02:25:12;;;;;;;;;;;;;;;6.57;74.64;99928.88;4988524;28;19914;-87
2021/01/22 02:27:57;;;;;;;;;;;;;;;6.62;74.17;99922.56;4983632;28;19914;-88
2021/01/22 02:30:42;;;;;;;;;;;;;;;6.56;73.93;99915.69;4982710;28;19914;-87
2021/01/22 02:33:28;;;;;;;;;;;;;;;6.61;74.06;99916.34;4970273;28;19914;-88
2021/01/22 02:36:14;;;;;;;;;;;;;;;6.87;72.49;99903.78;4973511;28;20403;-89
2021/01/22 02:39:01;;;;;;;;;;;;;;;6.76;72.32;99883.53;4965866;28;19914;-88
2021/01/22 02:41:47;;;;;;;;;;;;;;;6.67;73.02;99890.81;4957952;28;19918;-87
2021/01/22 02:44:32;;;;;;;;;;;;;;;6.72;73.32;99892.59;4989111;28;19914;-87
2021/01/22 02:47:18;;;;;;;;;;;;;;;6.80;73.03;99879.13;4988109;28;19914;-87
2021/01/22 02:50:06;;;;;;;;;;;;;;;6.52;74.05;99893.91;4980370;28;19914;-87
2021/01/22 02:52:50;;;;;;;;;;;;;;;6.49;74.50;99907.22;4980660;28;19914;-87
2021/01/22 02:55:35;;;;;;;;;;;;;;;6.50;74.99;99898.81;4979577;28;20372;-87
2021/01/22 02:58:27;;;;;;;;;;;;;;;6.45;74.74;99893.53;4985466;28;19914;-87
2021/01/22 03:01:16;;;;;;;;;;;;;;;6.42;74.61;99886.03;4986472;28;19917;-87
2021/01/22 03:04:07;;;;;;;;;;;;;;;6.45;74.83;99885.41;4981032;28;19914;-87
2021/01/22 03:06:52;;;;;;;;;;;;;;;6.51;74.53;99881.50;4987044;28;20292;-87
2021/01/22 03:09:38;;;;;;;;;;;;;;;6.55;74.04;99887.09;4981461;28;19914;-87
2021/01/22 03:12:25;;;;;;;;;;;;;;;6.53;74.55;99895.50;4981389;28;19918;-87
2021/01/22 03:15:10;;;;;;;;;;;;;;;6.50;75.10;99889.94;4985713;28;20319;-87
2021/01/22 03:18:09;;;;;;;;;;;;;;;6.46;74.92;99887.03;4964300;28;19918;-87
2021/01/22 03:20:54;;;;;;;;;;;;;;;6.36;74.94;99884.56;4971765;28;19930;-87
2021/01/22 03:23:38;;;;;;;;;;;;;;;6.42;75.23;99888.75;4979606;28;19914;-87
2021/01/22 03:26:23;;;;;;;;;;;;;;;6.43;75.08;99884.94;4982320;28;19917;-87
2021/01/22 03:29:08;;;;;;;;;;;;;;;6.43;75.17;99876.84;4968952;28;20292;-87
2021/01/22 03:31:52;;;;;;;;;;;;;;;6.49;74.90;99875.63;4972827;28;19913;-88
2021/01/22 03:34:37;;;;;;;;;;;;;;;6.47;74.92;99882.41;4982654;28;20368;-88
2021/01/22 03:37:21;;;;;;;;;;;;;;;6.42;75.15;99888.75;4986363;28;19914;-87
2021/01/22 03:40:06;;;;;;;;;;;;;;;6.37;75.93;99894.28;4966410;28;20001;-86
2021/01/22 03:42:50;;;;;;;;;;;;;;;6.42;75.67;99905.75;4980038;28;19914;-86
2021/01/22 03:45:35;;;;;;;;;;;;;;;6.44;75.87;99894.66;4972224;28;19914;-85
2021/01/22 03:48:20;;;;;;;;;;;;;;;6.44;75.36;99891.94;4971468;28;19918;-86
2021/01/22 03:51:04;;;;;;;;;;;;;;;6.54;75.14;99885.50;4983530;28;19918;-88
2021/01/22 03:53:49;;;;;;;;;;;;;;;6.47;74.79;99880.53;4988236;28;19914;-82
2021/01/22 03:56:33;;;;;;;;;;;;;;;6.49;74.33;99875.63;4981546;28;19917;-81
2021/01/22 03:59:18;;;;;;;;;;;;;;;6.46;75.20;99887.03;4983593;28;19913;-83
2021/01/22 04:02:02;;;;;;;;;;;;;;;6.48;74.33;99870.53;4972172;28;19918;-82
2021/01/22 04:04:47;;;;;;;;;;;;;;;6.53;74.43;99879.28;4984451;28;20360;-83
2021/01/22 04:07:32;;;;;;;;;;;;;;;6.52;75.02;99880.41;4988074;28;19914;-82
2021/01/22 04:10:16;;;;;;;;;;;;;;;6.60;74.61;99868.06;4969009;28;19914;-84
2021/01/22 04:13:01;;;;;;;;;;;;;;;6.43;74.89;99871.44;4980762;28;19914;-83
2021/01/22 04:15:46;;;;;;;;;;;;;;;6.41;75.18;99863.66;4968555;28;19914;-82
2021/01/22 04:18:30;;;;;;;;;;;;;;;6.30;75.38;99862.28;4981458;28;19914;-82
2021/01/22 04:21:15;;;;;;;;;;;;;;;6.56;74.15;99848.97;4981666;28;19930;-83
2021/01/22 04:23:59;;;;;;;;;;;;;;;6.50;75.03;99854.81;4986854;28;19913;-83
2021/01/22 04:26:46;;;;;;;;;;;;;;;6.52;74.78;99836.38;4984392;28;19918;-82
2021/01/22 04:29:30;;;;;;;;;;;;;;;6.41;74.79;99828.53;4972109;28;19914;-82
2021/01/22 04:32:15;;;;;;;;;;;;;;;6.47;75.05;99834.63;4978561;28;19913;-83
2021/01/22 04:35:00;;;;;;;;;;;;;;;6.47;75.38;99825.72;4968989;29;19914;-83
2021/01/22 04:37:44;;;;;;;;;;;;;;;6.64;74.41;99821.22;4986655;28;19917;-82
2021/01/22 04:40:30;;;;;;;;;;;;;;;6.42;75.17;99819.34;4991913;28;19914;-83
2021/01/22 04:43:15;;;;;;;;;;;;;;;6.43;75.44;99809.34;4986196;28;19917;-82
2021/01/22 04:46:01;;;;;;;;;;;;;;;6.46;75.27;99808.72;4987736;28;19902;-83
2021/01/22 04:48:48;;;;;;;;;;;;;;;6.51;75.10;99813.97;4986091;28;19918;-83
2021/01/22 04:51:33;;;;;;;;;;;;;;;6.49;75.22;99805.41;4972285;28;19921;-82
2021/01/22 04:54:22;;;;;;;;;;;;;;;6.50;75.38;99806.22;4987869;28;19913;-82
2021/01/22 04:57:06;;;;;;;;;;;;;;;6.44;75.05;99797.44;4992085;28;19918;-82
2021/01/22 04:59:51;;;;;;;;;;;;;;;6.40;75.32;99793.75;4986137;28;19914;-83
2021/01/22 05:02:37;;;;;;;;;;;;;;;6.43;75.38;99799.34;4987102;28;19925;-83
2021/01/22 05:05:21;;;;;;;;;;;;;;;6.46;75.60;99800.59;4985897;28;19914;-83
2021/01/22 05:08:06;;;;;;;;;;;;;;;6.42;75.70;99802.34;4990017;28;19914;-83
2021/01/22 05:10:51;;;;;;;;;;;;;;;6.59;74.48;99791.63;4987934;28;19914;-83
2021/01/22 05:13:36;;;;;;;;;;;;;;;6.59;74.31;99797.03;4984148;28;19914;-83
2021/01/22 05:16:23;;;;;;;;;;;;;;;6.52;75.51;99785.88;4986657;28;19914;-83
2021/01/22 05:19:21;;;;;;;;;;;;;;;6.67;74.12;99773.84;4986998;28;19914;-82
2021/01/22 05:22:07;;;;;;;;;;;;;;;6.67;73.53;99779.25;4966569;28;19922;-83
2021/01/22 05:25:00;;;;;;;;;;;;;;;6.68;74.86;99778.94;4967308;28;19914;-82
2021/01/22 05:27:49;;;;;;;;;;;;;;;6.56;74.36;99780.63;4969616;28;20392;-84
2021/01/22 05:30:33;;;;;;;;;;;;;;;6.70;73.69;99786.75;4991895;28;19914;-86
2021/01/22 05:33:18;;;;;;;;;;;;;;;6.95;75.03;99782.53;4987566;28;19914;-85
2021/01/22 05:36:25;;;;;;;;;;;;;;;7.29;73.38;99786.13;4977421;28;19914;-86
2021/01/22 05:39:17;;;;;;;;;;;;;;;7.50;72.92;99778.19;4980534;28;19914;-85
2021/01/22 05:42:02;;;;;;;;;;;;;;;7.44;72.84;99776.75;4977025;28;19918;-85
2021/01/22 05:44:53;;;;;;;;;;;;;;;7.31;73.36;99775.00;4983031;28;19914;-86
2021/01/22 05:47:38;;;;;;;;;;;;;;;7.57;72.73;99773.06;4983180;28;19914;-85
2021/01/22 05:50:23;;;;;;;;;;;;;;;7.76;72.56;99780.09;4978671;28;19917;-85
2021/01/22 05:53:11;;;;;;;;;;;;;;;7.80;71.59;99787.25;4964062;28;19914;-84
2021/01/22 05:56:05;;;;;;;;;;;;;;;7.71;72.43;99784.56;4981460;28;20316;-86
2021/01/22 05:58:50;;;;;;;;;;;;;;;7.67;72.25;99783.59;4978932;28;19914;-85
2021/01/22 06:01:34;;;;;;;;;;;;;;;7.42;72.27;99780.88;4944086;29;19926;-85
2021/01/22 06:04:19;;;;;;;;;;;;;;;7.45;72.04;99788.38;4957921;29;19915;-83
2021/01/22 06:07:12;;;;;;;;;;;;;;;7.23;72.59;99783.88;4959084;28;19918;-83
2021/01/22 06:09:57;;;;;;;;;;;;;;;7.39;73.50;99786.91;4976844;28;19918;-83
2021/01/22 06:12:52;;;;;;;;;;;;;;;6.99;73.14;99783.50;4977904;28;19914;-82
2021/01/22 06:15:37;;;;;;;;;;;;;;;6.90;72.93;99777.28;4984728;28;20299;-82
2021/01/22 06:18:29;;;;;;;;;;;;;;;7.00;73.46;99782.41;4985536;28;19914;-81
2021/01/22 06:21:17;;;;;;;;;;;;;;;6.87;73.24;99776.00;4982374;28;20296;-82
2021/01/22 06:24:03;;;;;;;;;;;;;;;6.83;73.57;99781.22;4977143;28;19914;-84
2021/01/22 06:26:49;;;;;;;;;;;;;;;6.94;73.22;99789.84;4989046;28;19921;-82
2021/01/22 06:29:36;;;;;;;;;;;;;;;6.96;74.05;99786.84;4980559;28;20384;-81
2021/01/22 06:32:21;;;;;;;;;;;;;;;6.70;73.71;99794.88;4984956;28;19914;-83
2021/01/22 06:35:06;;;;;;;;;;;;;;;7.43;75.55;99809.50;4987562;28;19914;-82
2021/01/22 06:37:52;;;;;;;;;;;;;;;7.43;72.58;99804.91;4987329;28;19922;-82
2021/01/22 06:40:36;;;;;;;;;;;;;;;7.29;71.85;99801.53;4981444;28;19922;-83
2021/01/22 06:43:21;;;;;;;;;;;;;;;7.10;72.23;99803.72;4979982;28;19918;-82
2021/01/22 06:46:10;;;;;;;;;;;;;;;7.11;72.58;99818.84;4986250;28;19913;-82
2021/01/22 06:48:55;;;;;;;;;;;;;;;6.98;73.41;99817.03;4986303;28;20304;-82
2021/01/22 06:51:40;;;;;;;;;;;;;;;6.93;72.97;99803.66;4989641;28;19914;-82
2021/01/22 06:54:24;;;;;;;;;;;;;;;6.97;73.90;99810.03;4987464;28;19955;-82
2021/01/22 06:57:10;;;;;;;;;;;;;;;6.92;73.29;99796.66;4972548;28;19913;-82
2021/01/22 06:59:55;;;;;;;;;;;;;;;6.84;73.94;99809.84;4983453;28;19918;-82
2021/01/22 07:02:40;;;;;;;;;;;;;;;6.79;73.88;99815.41;4983584;28;19918;-82
2021/01/22 07:05:28;;;;;;;;;;;;;;;6.90;72.93;99805.09;4987092;28;19917;-82
2021/01/22 07:08:13;;;;;;;;;;;;;;;6.88;72.98;99805.41;4969513;28;19918;-82
2021/01/22 07:10:59;;;;;;;;;;;;;;;6.87;72.99;99803.81;4987822;28;19914;-82
2021/01/22 07:13:47;;;;;;;;;;;;;;;6.75;73.82;99800.94;4985794;28;19922;-82
2021/01/22 07:16:35;;;;;;;;;;;;;;;6.80;73.65;99800.78;4977338;28;19914;-82
2021/01/22 07:19:20;;;;;;;;;;;;;;;6.84;73.39;99800.94;4972819;28;19914;-82
2021/01/22 07:22:05;;;;;;;;;;;;;;;6.80;73.45;99813.50;4984673;28;19922;-82
2021/01/22 07:24:51;;;;;;;;;;;;;;;6.78;73.66;99808.38;4969000;28;19914;-82
2021/01/22 07:27:40;;;;;;;;;;;;;;;6.78;73.68;99811.09;4973972;28;19918;-82
2021/01/22 07:30:36;;;;;;;;;;;;;;;6.85;73.75;99806.06;4985806;28;19914;-82
2021/01/22 07:33:30;;;;;;;;;;;;;;;6.78;73.89;99799.50;4989573;28;19918;-82
2021/01/22 07:36:14;;;;;;;;;;;;;;;6.80;73.75;99800.78;4986656;28;19918;-81
2021/01/22 07:39:00;;;;;;;;;;;;;;;7.06;72.95;99797.38;4982195;28;19914;-83
2021/01/22 07:41:46;;;;;;;;;;;;;;;6.97;73.28;99794.63;4982752;28;19925;-82
2021/01/22 07:44:30;;;;;;;;;;;;;;;6.81;73.64;99788.84;4985630;28;19914;-82
2021/01/22 07:47:28;;;;;;;;;;;;;;;6.81;73.91;99798.84;4982207;28;20328;-82
2021/01/22 07:50:14;;;;;;;;;;;;;;;6.82;73.76;99800.44;4970372;28;19920;-82
2021/01/22 07:52:59;;;;;;;;;;;;;;;6.89;73.22;99795.41;4982582;28;19921;-82
2021/01/22 07:55:50;;;;;;;;;;;;;;;6.67;73.21;99798.97;4983904;28;19913;-82
2021/01/22 07:58:37;;;;;;;;;;;;;;;6.92;73.02;99805.56;4986308;28;19918;-82
2021/01/22 08:01:23;;;;;;;;;;;;;;;6.85;73.52;99813.34;4984537;28;19918;-82
2021/01/22 08:04:08;;;;;;;;;;;;;;;6.78;73.54;99816.50;4971577;28;19914;-82
2021/01/22 08:06:53;;;;;;;;;;;;;;;6.78;73.99;99819.19;4977530;28;19914;-82
2021/01/22 08:09:50;;;;;;;;;;;;;;;7.00;72.81;99818.34;4995769;23;19926;-76
2021/01/22 08:12:34;;;;;;;;;;;;;;;6.84;73.81;99799.03;4978272;28;20300;-77
2021/01/22 08:15:19;;;;;;;;;;;;;;;6.83;74.17;99807.44;4985038;28;19914;-79
2021/01/22 08:18:05;;;;;;;;;;;;;;;6.81;74.46;99805.06;4968365;28;19914;-78
2021/01/22 08:20:50;;;;;;;;;;;;;;;6.76;73.84;99791.69;4946333;29;19915;-77
2021/01/22 08:23:35;;;;;;;;;;;;;;;6.71;75.00;99783.72;4959615;29;19940;-79
2021/01/22 08:26:20;;;;;;;;;;;;;;;6.59;74.76;99791.63;4961674;28;19918;-79
2021/01/22 08:29:05;;;;;;;;;;;;;;;7.17;73.20;99790.53;4959256;28;19915;-79
2021/01/22 08:31:50;;;;;;;;;;;;;;;7.12;72.81;99787.97;4959996;29;19915;-77
2021/01/22 08:34:34;;;;;;;;;;;;;;;6.87;74.61;99786.78;4947445;29;19914;-79
2021/01/22 08:37:20;;;;;;;;;;;;;;;6.69;74.79;99802.16;4959339;29;19922;-79
2021/01/22 08:40:04;;;;;;;;;;;;;;;6.85;75.04;99806.06;4958961;28;19929;-78
2021/01/22 08:43:01;;;;;;;;;;;;;;;6.87;74.58;99798.41;4957414;29;19918;-79
2021/01/22 08:46:06;;;;;;;;;;;;;;;6.92;75.05;99788.56;4952596;28;20129;-79
2021/01/22 08:48:51;;;;;;;;;;;;;;;6.81;75.67;99788.03;4939149;29;19914;-78
2021/01/22 08:51:37;;;;;;;;;;;;;;;7.05;74.94;99779.56;4953908;28;19915;-79
2021/01/22 08:54:35;;;;;;;;;;;;;;;6.95;75.10;99774.44;4951498;28;20381;-78
2021/01/22 08:57:21;;;;;;;;;;;;;;;6.85;75.87;99768.22;4938502;29;20112;-79
2021/01/22 09:00:06;;;;;;;;;;;;;;;6.87;75.75;99776.00;4938377;29;19919;-79
2021/01/22 09:02:51;;;;;;;;;;;;;;;6.78;75.90;99783.28;4956106;28;19923;-77
2021/01/22 09:05:47;;;;;;;;;;;;;;;6.78;76.39;99765.16;4937693;29;19915;-79
2021/01/22 09:08:33;;;;;;;;;;;;;;;6.88;75.84;99761.38;4951888;28;20293;-78
2021/01/22 09:11:36;;;;;;;;;;;;;;;6.98;75.30;99746.78;4937341;29;19915;-77
2021/01/22 09:14:21;;;;;;;;;;;;;;;6.90;75.76;99747.56;4937626;29;19914;-78
2021/01/22 09:17:05;;;;;;;;;;;;;;;6.83;75.52;99765.03;4937699;29;20373;-77
2021/01/22 09:20:01;;;;;;;;;;;;;;;6.85;75.66;99757.41;4952207;28;19915;-78
2021/01/22 09:22:47;;;;;;;;;;;;;;;6.77;75.63;99760.88;4952432;28;19919;-78
2021/01/22 09:25:31;;;;;;;;;;;;;;;6.83;75.84;99765.03;4950814;28;19914;-79
2021/01/22 09:28:15;;;;;;;;;;;;;;;6.98;75.48;99761.09;4954049;28;19915;-77
2021/01/22 09:31:00;;;;;;;;;;;;;;;6.88;75.63;99764.06;4936531;29;19914;-77
2021/01/22 09:33:44;;;;;;;;;;;;;;;6.93;75.58;99771.25;4936373;29;19914;-77
2021/01/22 09:36:28;;;;;;;;;;;;;;;6.84;75.95;99761.22;4940893;29;19915;-77
2021/01/22 09:39:13;;;;;;;;;;;;;;;6.78;76.34;99767.88;4937088;29;19933;-77
2021/01/22 09:41:58;;;;;;;;;;;;;;;6.88;76.03;99772.97;4949416;29;19919;-78
2021/01/22 09:44:42;;;;;;;;;;;;;;;6.84;76.49;99755.81;4954608;28;19937;-79
2021/01/22 09:47:26;;;;;;;;;;;;;;;6.84;76.38;99753.09;4952641;28;19919;-76
2021/01/22 09:50:13;;;;;;;;;;;;;;;6.83;76.40;99748.81;4950477;28;19914;-78
2021/01/22 09:52:58;;;;;;;;;;;;;;;6.83;76.28;99732.59;4949288;29;19915;-78
2021/01/22 09:55:42;;;;;;;;;;;;;;;6.86;76.67;99731.16;4936999;29;19914;-78
2021/01/22 09:58:29;;;;;;;;;;;;;;;6.72;76.93;99736.69;4950623;28;19918;-77
2021/01/22 10:01:14;;;;;;;;;;;;;;;6.83;76.43;99738.00;4936455;29;19918;-76
2021/01/22 10:03:58;;;;;;;;;;;;;;;6.90;76.29;99739.44;4952572;28;19915;-77
2021/01/22 10:06:42;;;;;;;;;;;;;;;6.94;76.18;99726.91;4936374;29;19914;-78
2021/01/22 10:09:27;;;;;;;;;;;;;;;6.93;76.52;99717.19;4948393;28;20292;-79
2021/01/22 10:12:13;;;;;;;;;;;;;;;6.90;76.69;99717.84;4936374;29;20385;-79
2021/01/22 10:14:57;;;;;;;;;;;;;;;6.81;77.14;99707.00;4948751;29;19918;-76
2021/01/22 10:17:41;;;;;;;;;;;;;;;6.94;76.92;99697.16;4948685;28;19914;-78
2021/01/22 10:20:26;;;;;;;;;;;;;;;6.89;76.79;99692.72;4935751;29;19915;-76
2021/01/22 10:23:10;;;;;;;;;;;;;;;7.01;76.54;99675.88;4950750;28;19918;-77
2021/01/22 10:25:55;;;;;;;;;;;;;;;7.04;76.76;99659.03;4948207;28;19914;-76
2021/01/22 10:28:40;;;;;;;;;;;;;;;7.06;76.47;99665.69;4934760;29;19915;-77
2021/01/22 10:31:24;;;;;;;;;;;;;;;7.05;76.52;99657.91;4939952;29;19914;-77
2021/01/22 10:34:09;;;;;;;;;;;;;;;7.00;76.59;99650.75;4954618;28;19915;-77
2021/01/22 10:36:53;;;;;;;;;;;;;;;6.99;76.79;99637.56;4953849;29;19914;-76
2021/01/22 10:39:39;;;;;;;;;;;;;;;7.84;73.60;99652.09;4953561;28;20291;-76
2021/01/22 10:42:27;;;;;;;;;;;;;;;7.38;74.83;99661.72;4941333;29;19919;-77
2021/01/22 10:45:12;;;;;;;;;;;;;;;7.08;77.34;99668.09;4958670;28;19914;-76
2021/01/22 10:47:56;;;;;;;;;;;;;;;6.92;78.44;99665.06;4949928;28;19918;-76
2021/01/22 10:50:41;;;;;;;;;;;;;;;6.67;79.50;99658.50;4934514;29;20389;-76
2021/01/22 10:53:26;;;;;;;;;;;;;;;6.75;79.76;99656.94;4939427;29;19914;-76
2021/01/22 10:56:10;;;;;;;;;;;;;;;6.82;79.21;99646.44;4924301;29;19914;-77
2021/01/22 10:58:55;;;;;;;;;;;;;;;6.68;79.57;99632.28;4935760;29;19914;-77
2021/01/22 11:01:39;;;;;;;;;;;;;;;6.66;80.12;99639.91;4926074;29;19914;-76
2021/01/22 11:04:23;;;;;;;;;;;;;;;6.58;79.77;99635.28;4924487;29;20458;-76
2021/01/22 11:07:08;;;;;;;;;;;;;;;6.55;79.73;99611.63;4936300;29;19918;-76
2021/01/22 11:09:53;;;;;;;;;;;;;;;6.65;79.42;99585.09;4933720;29;20297;-76
2021/01/22 11:12:37;;;;;;;;;;;;;;;6.78;78.70;99588.75;4938126;29;19919;-77
2021/01/22 11:15:22;;;;;;;;;;;;;;;6.83;79.00;99586.69;4936058;29;19914;-78
2021/01/22 11:18:07;;;;;;;;;;;;;;;6.96;78.55;99579.53;4936106;29;19922;-78
2021/01/22 11:20:53;;;;;;;;;;;;;;;6.99;77.99;99567.28;4939689;29;19919;-78
2021/01/22 11:23:38;;;;;;;;;;;;;;;6.98;78.02;99560.28;4924868;29;19930;-79
2021/01/22 11:26:22;;;;;;;;;;;;;;;7.09;77.79;99562.34;4935902;29;19919;-79
2021/01/22 11:29:06;;;;;;;;;;;;;;;7.06;77.88;99560.28;4935665;29;19914;-79
2021/01/22 11:31:51;;;;;;;;;;;;;;;6.93;78.14;99565.88;4937428;29;19915;-79
2021/01/22 11:34:35;;;;;;;;;;;;;;;7.04;77.34;99553.63;4936405;29;19914;-79
2021/01/22 11:37:19;;;;;;;;;;;;;;;6.92;77.68;99545.34;4940503;29;19915;-79
2021/01/22 11:40:05;;;;;;;;;;;;;;;6.92;77.98;99535.34;4927180;29;19915;-78
2021/01/22 11:42:50;;;;;;;;;;;;;;;6.83;78.27;99526.47;4938975;29;19918;-77
2021/01/22 11:45:34;;;;;;;;;;;;;;;6.85;78.66;99516.94;4939674;29;19914;-77
2021/01/22 11:48:19;;;;;;;;;;;;;;;6.85;78.49;99516.13;4937433;29;19915;-78
2021/01/22 11:51:03;;;;;;;;;;;;;;;6.78;79.17;99521.22;4939116;29;19915;-76
2021/01/22 11:53:48;;;;;;;;;;;;;;;6.82;78.98;99519.47;4943818;29;19915;-78
2021/01/22 11:56:33;;;;;;;;;;;;;;;6.83;78.79;99519.16;4939600;29;19914;-76
2021/01/22 11:59:18;;;;;;;;;;;;;;;6.83;78.77;99513.75;4947897;28;19915;-76
2021/01/22 12:02:02;;;;;;;;;;;;;;;6.87;79.56;99522.00;4948625;28;19919;-77
2021/01/22 12:04:47;;;;;;;;;;;;;;;6.88;79.37;99516.28;4957192;29;19914;-78
2021/01/22 12:07:32;;;;;;;;;;;;;;;6.96;79.58;99522.78;4945349;29;19915;-77
2021/01/22 12:10:16;;;;;;;;;;;;;;;6.90;80.04;99517.88;4955930;28;19918;-80
2021/01/22 12:13:01;;;;;;;;;;;;;;;6.80;80.19;99506.28;4947220;29;19914;-76
2021/01/22 12:15:46;;;;;;;;;;;;;;;6.83;80.13;99499.44;4944841;29;19914;-75
2021/01/22 12:18:30;;;;;;;;;;;;;;;6.90;79.24;99488.94;4953201;28;19923;-78
2021/01/22 12:21:15;;;;;;;;;;;;;;;6.82;79.88;99487.84;4944798;29;19914;-79
2021/01/22 12:23:59;;;;;;;;;;;;;;;6.94;79.31;99472.88;4954608;29;19919;-78
2021/01/22 12:26:44;;;;;;;;;;;;;;;6.88;79.24;99464.94;4956903;28;19914;-80
2021/01/22 12:29:29;;;;;;;;;;;;;;;6.75;79.33;99463.22;4959561;28;19914;-80
2021/01/22 12:32:13;;;;;;;;;;;;;;;6.94;79.03;99459.38;4957425;29;19914;-79
2021/01/22 12:34:58;;;;;;;;;;;;;;;6.85;79.30;99465.59;4943598;29;19918;-79
2021/01/22 12:37:42;;;;;;;;;;;;;;;6.94;79.51;99464.78;4954573;29;19914;-81
2021/01/22 12:40:26;;;;;;;;;;;;;;;6.95;79.70;99458.25;4940916;29;19914;-81
2021/01/22 12:43:11;;;;;;;;;;;;;;;6.68;80.83;99462.13;4957397;29;19918;-80
2021/01/22 12:45:55;;;;;;;;;;;;;;;6.59;81.56;99458.63;4945118;28;19914;-80
2021/01/22 12:48:40;;;;;;;;;;;;;;;6.60;81.74;99439.41;4953236;28;19915;-79
2021/01/22 12:51:25;;;;;;;;;;;;;;;7.38;81.50;99407.50;4956819;28;19914;-77
2021/01/22 12:54:10;;;;;;;;;;;;;;;7.60;79.68;99409.97;4955366;29;19922;-77
2021/01/22 12:56:54;;;;;;;;;;;;;;;7.95;79.37;99402.41;4956064;29;19915;-77
2021/01/22 12:59:39;;;;;;;;;;;;;;;8.33;78.07;99404.22;4953435;28;20412;-80
2021/01/22 13:02:25;;;;;;;;;;;;;;;8.46;75.66;99401.22;4954041;29;20297;-79
2021/01/22 13:05:12;;;;;;;;;;;;;;;8.02;75.87;99396.47;4955798;29;19915;-81
2021/01/22 13:07:56;;;;;;;;;;;;;;;7.65;76.61;99387.31;4953271;29;20526;-77
2021/01/22 13:10:41;;;;;;;;;;;;;;;7.77;77.44;99376.59;4939814;29;19918;-77
2021/01/22 13:13:26;;;;;;;;;;;;;;;8.32;77.86;99365.50;4954390;29;19914;-80
2021/01/22 13:16:11;;;;;;;;;;;;;;;8.82;76.86;99361.78;4957659;28;19922;-78
2021/01/22 13:18:56;;;;;;;;;;;;;;;8.87;74.63;99362.38;4955656;28;19914;-78
2021/01/22 13:21:40;;;;;;;;;;;;;;;8.28;74.50;99361.81;4943511;28;19914;-81
2021/01/22 13:24:25;;;;;;;;;;;;;;;8.01;75.66;99362.41;4931563;29;19918;-82
2021/01/22 13:27:09;;;;;;;;;;;;;;;7.93;75.21;99352.41;4957423;29;19915;-82
2021/01/22 13:29:54;;;;;;;;;;;;;;;7.64;76.65;99351.38;4958000;28;19940;-83
2021/01/22 13:32:40;;;;;;;;;;;;;;;7.64;76.51;99332.44;4958210;29;19914;-81
2021/01/22 13:35:24;;;;;;;;;;;;;;;7.54;76.87;99329.31;4956883;29;20388;-81
2021/01/22 13:38:08;;;;;;;;;;;;;;;7.55;77.29;99322.78;4956218;29;19915;-82
2021/01/22 13:40:53;;;;;;;;;;;;;;;7.50;77.30;99306.75;4963504;28;19914;-82
2021/01/22 13:43:38;;;;;;;;;;;;;;;7.45;77.42;99305.03;4958023;28;19922;-81
2021/01/22 13:46:22;;;;;;;;;;;;;;;7.44;78.24;99298.03;4960187;28;19918;-81
2021/01/22 13:49:07;;;;;;;;;;;;;;;7.51;77.75;99294.81;4944567;29;19914;-81
2021/01/22 13:51:53;;;;;;;;;;;;;;;7.52;78.04;99291.78;4942038;29;19922;-80
2021/01/22 13:54:37;;;;;;;;;;;;;;;7.52;77.81;99291.78;4946373;28;19915;-81
2021/01/22 13:57:23;;;;;;;;;;;;;;;7.51;77.80;99282.09;4952192;28;19933;-79
2021/01/22 14:00:08;;;;;;;;;;;;;;;7.50;77.64;99272.41;4968622;28;19918;-80
2021/01/22 14:02:53;;;;;;;;;;;;;;;7.44;77.98;99272.91;4965946;28;19918;-80
2021/01/22 14:05:37;;;;;;;;;;;;;;;7.52;77.58;99274.75;4953848;28;19914;-80
2021/01/22 14:08:22;;;;;;;;;;;;;;;7.54;77.58;99276.00;4936996;29;19914;-79
2021/01/22 14:11:06;;;;;;;;;;;;;;;7.78;76.23;99269.13;5004224;22;19923;-81
2021/01/22 14:13:51;;;;;;;;;;;;;;;7.73;76.57;99264.72;4967543;28;20396;-81
2021/01/22 14:16:36;;;;;;;;;;;;;;;7.68;77.00;99254.88;4966394;29;19929;-80
2021/01/22 14:19:20;;;;;;;;;;;;;;;7.65;77.34;99238.53;4968157;29;19914;-80
2021/01/22 14:22:05;;;;;;;;;;;;;;;7.65;76.98;99243.94;4968703;28;19914;-80
2021/01/22 14:24:50;;;;;;;;;;;;;;;7.68;77.07;99233.25;4967320;28;19922;-81
2021/01/22 14:27:35;;;;;;;;;;;;;;;7.71;76.81;99229.09;4971173;28;19914;-81
2021/01/22 14:30:19;;;;;;;;;;;;;;;7.57;77.73;99228.56;4967086;28;19922;-80
2021/01/22 14:33:04;;;;;;;;;;;;;;;7.65;77.36;99206.88;4966009;29;19914;-80